首页
METAR-TAF:

METAR-TAF

机场 :

佩尔, 比利时

纬度: 51-10N, 经度: 005-28E, 海拔: 55米

当前天气观测

该预报发布于31分钟前的05:25 UTC
风速8节,风向西转西南
温度 4°C
湿度 93%
气压 1015 hPa
能见度10公里或以上

METAR: EBBL 190525Z AUTO 24008KT 9999 FEW035/// SCT050/// BKN061/// 04/03 Q1015 BLU

时间: 06:56 (05:56 UTC)

预报

该预报发布于14小时和15分钟前的15:41 UTC
预报有效从18日的 19点(UTC)到 19日的 07点(UTC)
风速5节,风向西
能見度: 6000
多云层高于700英尺
多云层高于1400英尺
小雨
短暂存在
从 18日的 19点(UTC)到 18日的 20点(UTC)
能見度: 3000
多云层高于500英尺
多云层高于1000英尺
成为
从 18日的 20点(UTC)到 18日的 22点(UTC)
风速5节,风向西北
能見度: 8000
散云层高于1000英尺
多云层高于1600英尺
成为
从 19日的 00点(UTC)到 19日的 02点(UTC)
风速3节,风向西
能見度: 6000
散云层高于2000英尺

TAF: EBBL 181541Z 1819/1907 27005KT 6000 -RA BKN007 BKN014 TEMPO 1819/1820 3000 RA BKN005 BKN010 BECMG 1820/1822 31005KT 8000 NSW SCT010 BKN016 BECMG 1900/1902 26003KT 6000 SCT020

超过4000个机场的气象观测和天气预报(METAR&TAF报告)。

可查询的气象台以黄色和红色小点在地图上表示。

将鼠标移到小点上方,可查看气象台名称。

然后点击查看天气观测和预报。

如需切换地图:点击带黑十字的绿色按钮放大地图;点击带横线的绿色按钮缩小地图;或者点击绿色箭头查看邻近地区的地图。


METAR-TAF: